Time;durP1;ratioP1;P1;durP2;ratioP2;P2;SDS_P1;SDS_P2;PMS_P1;PMS_P2;Temp;Humidity;BMP_temperature;BMP_pressure;BME280_temperature;BME280_humidity;BME280_pressure;Samples;Min_cycle;Max_cycle;Signal;HPM_P1;HPM_P2
2023/07/05 00:01:26;;;;;;;6.95;5.38;;;;;;;15.15;100.00;100318.75;5048279;28;20082;-58
2023/07/05 00:03:52;;;;;;;5.93;5.32;;;;;;;15.15;100.00;100315.28;5047209;28;20443;-58
2023/07/05 00:06:17;;;;;;;6.75;4.80;;;;;;;15.16;100.00;100290.94;5048821;28;20548;-60
2023/07/05 00:08:42;;;;;;;7.45;4.90;;;;;;;15.15;100.00;100276.16;5048634;28;20071;-59
2023/07/05 00:11:10;;;;;;;5.18;4.40;;;;;;;15.15;100.00;100277.00;5034347;28;20013;-58
2023/07/05 00:13:36;;;;;;;6.05;5.13;;;;;;;15.13;100.00;100263.94;5048314;28;20025;-59
2023/07/05 00:16:02;;;;;;;6.57;4.80;;;;;;;15.11;100.00;100260.44;5047982;28;20086;-59
2023/07/05 00:18:28;;;;;;;5.18;3.90;;;;;;;15.09;100.00;100272.63;5047636;28;20028;-59
2023/07/05 00:21:02;;;;;;;7.82;5.47;;;;;;;15.09;100.00;100253.50;5048002;28;20024;-59
2023/07/05 00:23:29;;;;;;;5.35;4.20;;;;;;;15.08;100.00;100228.25;5047752;28;20036;-57
2023/07/05 00:25:54;;;;;;;6.88;4.00;;;;;;;15.07;100.00;100219.59;5047936;28;20016;-59
2023/07/05 00:28:19;;;;;;;6.43;4.32;;;;;;;15.05;100.00;100213.47;5047957;28;20029;-58
2023/07/05 00:30:46;;;;;;;5.20;4.10;;;;;;;15.06;100.00;100210.00;5047160;28;20024;-59
2023/07/05 00:33:11;;;;;;;5.60;4.35;;;;;;;15.04;100.00;100206.50;5046942;28;20025;-58
2023/07/05 00:35:36;;;;;;;5.05;3.80;;;;;;;15.05;100.00;100197.84;5047286;28;20024;-58
2023/07/05 00:38:02;;;;;;;5.82;3.70;;;;;;;15.03;100.00;100188.25;5047552;28;20404;-59
2023/07/05 00:40:27;;;;;;;4.82;4.05;;;;;;;15.04;100.00;100185.63;5047394;28;20037;-58
2023/07/05 00:42:52;;;;;;;6.63;3.78;;;;;;;15.03;100.00;100150.00;5047717;28;20024;-57
2023/07/05 00:45:18;;;;;;;7.78;3.75;;;;;;;15.00;100.00;100136.94;5047097;28;20095;-59
2023/07/05 00:47:45;;;;;;;6.85;4.45;;;;;;;14.97;100.00;100155.19;5044963;28;20456;-59
2023/07/05 00:50:24;;;;;;;4.53;4.13;;;;;;;14.94;100.00;100166.50;5043467;28;20028;-60
2023/07/05 00:52:50;;;;;;;5.55;3.70;;;;;;;14.94;100.00;100174.31;5047457;28;20013;-58
2023/07/05 00:55:18;;;;;;;4.68;3.70;;;;;;;14.96;100.00;100176.94;5046955;28;20021;-59
2023/07/05 00:57:44;;;;;;;5.20;4.25;;;;;;;14.89;100.00;100170.81;5047598;28;20063;-59
2023/07/05 01:00:14;;;;;;;5.10;3.72;;;;;;;14.84;100.00;100165.56;5047061;28;20139;-59
2023/07/05 01:02:43;;;;;;;5.18;4.13;;;;;;;14.87;100.00;100156.91;5047632;28;20059;-59
2023/07/05 01:05:11;;;;;;;4.32;3.88;;;;;;;14.86;100.00;100156.03;5047011;28;20028;-59
2023/07/05 01:07:36;;;;;;;6.78;3.65;;;;;;;14.88;100.00;100146.47;5034250;28;20021;-59
2023/07/05 01:10:03;;;;;;;4.35;3.70;;;;;;;14.87;100.00;100151.69;5047367;28;20492;-58
2023/07/05 01:12:38;;;;;;;7.55;3.78;;;;;;;14.88;100.00;100146.47;5046478;28;20603;-59
2023/07/05 01:15:07;;;;;;;4.20;3.80;;;;;;;14.87;100.00;100136.91;5047415;28;20535;-58
2023/07/05 01:18:01;;;;;;;5.72;3.95;;;;;;;14.89;100.00;100135.16;5047695;28;20021;-59
2023/07/05 01:20:54;;;;;;;4.25;3.63;;;;;;;14.89;100.00;100140.38;5046987;28;20083;-58
2023/07/05 01:23:44;;;;;;;4.68;4.00;;;;;;;14.87;100.00;100131.69;5047089;28;20025;-57
2023/07/05 01:26:55;;;;;;;4.40;3.83;;;;;;;14.86;100.00;100124.72;5047093;28;20491;-59
2023/07/05 01:29:42;;;;;;;7.50;4.10;;;;;;;14.88;100.00;100133.41;5046419;28;20405;-57
2023/07/05 01:32:19;;;;;;;5.22;4.20;;;;;;;14.87;100.00;100129.09;5046985;28;20290;-58
2023/07/05 01:35:04;;;;;;;4.20;3.75;;;;;;;14.88;100.00;100132.53;5047522;28;20020;-59
2023/07/05 01:37:36;;;;;;;3.70;3.40;;;;;;;14.89;100.00;100139.53;5046861;28;20240;-57
2023/07/05 01:40:31;;;;;;;4.20;3.72;;;;;;;14.94;100.00;100136.91;5046374;28;20025;-58
2023/07/05 01:43:00;;;;;;;5.40;3.22;;;;;;;14.93;100.00;100135.19;5041396;28;20108;-58
2023/07/05 01:45:39;;;;;;;4.10;3.63;;;;;;;14.91;100.00;100142.13;5048250;28;20048;-59
2023/07/05 01:48:09;;;;;;;3.35;3.05;;;;;;;14.92;100.00;100139.53;5050015;28;20032;-58
2023/07/05 01:50:48;;;;;;;5.35;3.67;;;;;;;14.96;100.00;100140.41;5050929;28;20020;-57
2023/07/05 01:53:35;;;;;;;3.20;2.90;;;;;;;14.95;100.00;100144.75;5050404;28;20043;-59
2023/07/05 01:56:09;;;;;;;3.03;2.80;;;;;;;14.98;100.00;100146.50;5051345;28;20257;-59
2023/07/05 01:58:45;;;;;;;4.97;3.10;;;;;;;14.99;100.00;100143.88;5049487;28;20031;-59
2023/07/05 02:01:14;;;;;;;4.05;2.95;;;;;;;15.02;100.00;100156.06;5050162;28;20377;-58
2023/07/05 02:03:41;;;;;;;3.33;2.47;;;;;;;14.96;100.00;100175.19;5037944;28;20032;-59
2023/07/05 02:06:08;;;;;;;3.08;2.78;;;;;;;14.98;100.00;100175.19;5049989;28;20035;-59
2023/07/05 02:08:39;;;;;;;2.70;2.50;;;;;;;14.99;100.00;100187.34;5040708;28;20115;-58
2023/07/05 02:11:04;;;;;;;2.88;2.58;;;;;;;14.98;100.00;100196.06;5049982;28;20024;-59
2023/07/05 02:13:30;;;;;;;4.60;2.65;;;;;;;14.89;100.00;100200.38;5050736;28;20421;-58
2023/07/05 02:15:55;;;;;;;3.40;2.10;;;;;;;14.83;100.00;100202.09;5049755;28;20031;-59
2023/07/05 02:18:21;;;;;;;3.03;1.77;;;;;;;14.74;100.00;100218.53;5050079;28;20016;-59
2023/07/05 02:20:46;;;;;;;2.65;2.00;;;;;;;14.67;100.00;100216.75;5049596;28;20060;-60
2023/07/05 02:23:11;;;;;;;2.72;1.95;;;;;;;14.55;100.00;100223.66;5050395;28;20031;-58
2023/07/05 02:25:37;;;;;;;3.25;1.67;;;;;;;14.44;100.00;100238.34;5049247;28;20020;-59
2023/07/05 02:28:07;;;;;;;2.97;1.50;;;;;;;14.42;100.00;100248.78;5049804;28;20139;-58
2023/07/05 02:30:38;;;;;;;1.92;1.63;;;;;;;14.39;100.00;100244.41;5048806;28;20544;-59
2023/07/05 02:33:03;;;;;;;2.22;1.45;;;;;;;14.36;100.00;100247.00;5049883;28;20519;-59
2023/07/05 02:35:28;;;;;;;3.33;1.45;;;;;;;14.31;100.00;100253.91;5049459;28;20020;-59
2023/07/05 02:37:55;;;;;;;3.22;2.05;;;;;;;14.23;100.00;100264.25;5049938;28;20045;-58
2023/07/05 02:40:20;;;;;;;2.10;1.88;;;;;;;14.07;100.00;100268.47;5049363;28;20056;-58
2023/07/05 02:42:46;;;;;;;3.08;1.75;;;;;;;13.92;100.00;100280.50;5049361;28;20095;-58
2023/07/05 02:45:11;;;;;;;5.20;2.38;;;;;;;13.89;100.00;100269.19;5049215;28;20029;-58
2023/07/05 02:47:36;;;;;;;3.75;2.60;;;;;;;13.81;100.00;100263.94;5050000;28;20025;-59
2023/07/05 02:50:02;;;;;;;2.70;2.33;;;;;;;13.72;100.00;100261.22;5049571;28;20017;-58
2023/07/05 02:52:27;;;;;;;2.67;1.95;;;;;;;13.68;100.00;100257.72;5049420;28;20031;-59
2023/07/05 02:54:53;;;;;;;4.07;2.20;;;;;;;13.60;100.00;100268.03;5049210;28;20376;-59
2023/07/05 02:57:18;;;;;;;2.90;2.40;;;;;;;13.56;100.00;100267.13;5047897;28;20358;-58
2023/07/05 02:59:43;;;;;;;3.60;2.30;;;;;;;13.53;100.00;100250.63;5049483;28;20473;-59
2023/07/05 03:02:10;;;;;;;3.30;2.67;;;;;;;13.51;100.00;100262.72;5041462;28;20070;-58
2023/07/05 03:04:36;;;;;;;2.75;2.25;;;;;;;13.45;100.00;100268.75;5043709;28;20047;-57
2023/07/05 03:07:01;;;;;;;3.38;2.38;;;;;;;13.44;100.00;100249.63;5049546;28;20491;-57
2023/07/05 03:09:26;;;;;;;3.97;2.35;;;;;;;13.39;100.00;100259.13;5048890;28;20039;-58
2023/07/05 03:11:51;;;;;;;3.85;2.90;;;;;;;13.26;100.00;100263.31;5049338;28;20025;-58
2023/07/05 03:14:17;;;;;;;3.88;2.55;;;;;;;13.22;100.00;100253.75;5049249;28;20028;-58
2023/07/05 03:16:42;;;;;;;5.68;2.88;;;;;;;13.23;100.00;100258.09;5049101;28;20037;-58
2023/07/05 03:19:07;;;;;;;3.70;2.50;;;;;;;13.18;100.00;100249.34;5048711;28;20025;-58
2023/07/05 03:21:33;;;;;;;4.05;3.13;;;;;;;13.09;100.00;100263.13;5047334;28;20714;-58
2023/07/05 03:23:58;;;;;;;3.63;3.05;;;;;;;13.07;100.00;100268.31;5047684;28;20036;-58
2023/07/05 03:26:23;;;;;;;4.60;3.05;;;;;;;13.03;100.00;100255.22;5047683;28;20376;-58
2023/07/05 03:28:48;;;;;;;4.20;3.17;;;;;;;13.05;100.00;100261.31;5046624;28;20048;-58
2023/07/05 03:31:16;;;;;;;2.58;2.38;;;;;;;13.04;100.00;100270.00;5047088;28;20025;-59
2023/07/05 03:33:42;;;;;;;7.32;3.30;;;;;;;13.02;100.00;100267.38;5046743;28;20035;-58
2023/07/05 03:36:13;;;;;;;6.07;3.42;;;;;;;13.05;100.00;100253.53;5045766;28;20264;-59
2023/07/05 03:38:39;;;;;;;4.60;3.25;;;;;;;13.03;100.00;100263.03;5047193;28;20087;-58
2023/07/05 03:41:10;;;;;;;3.97;3.58;;;;;;;13.02;100.00;100269.97;5047087;28;20028;-57
2023/07/05 03:43:36;;;;;;;;;;;;;;;12.99;100.00;100269.06;5046465;28;20025;-57
2023/07/05 03:46:03;;;;;;;6.00;3.75;;;;;;;12.99;100.00;100274.28;5047324;28;19909;-58
2023/07/05 03:48:37;;;;;;;7.20;3.05;;;;;;;12.95;100.00;100269.00;5041974;28;20373;-58
2023/07/05 03:51:03;;;;;;;7.75;3.38;;;;;;;13.00;100.00;100270.81;5042943;28;20029;-59
2023/07/05 03:53:28;;;;;;;5.78;3.20;;;;;;;12.98;100.00;100268.19;5048492;28;20500;-60
2023/07/05 03:55:54;;;;;;;6.45;3.72;;;;;;;12.97;100.00;100271.63;5048582;28;20029;-59
2023/07/05 03:58:20;;;;;;;3.63;3.17;;;;;;;12.91;100.00;100267.25;5048101;28;20473;-59
2023/07/05 04:00:45;;;;;;;4.53;3.47;;;;;;;12.95;100.00;100263.81;5039467;28;20141;-58
2023/07/05 04:03:14;;;;;;;3.42;3.08;;;;;;;12.91;100.00;100262.03;5044805;28;20044;-57
2023/07/05 04:05:40;;;;;;;5.95;3.45;;;;;;;12.92;100.00;100258.56;5048684;28;20590;-58
2023/07/05 04:08:05;;;;;;;5.28;3.50;;;;;;;12.91;100.00;100262.03;5048196;28;20075;-58
2023/07/05 04:10:30;;;;;;;4.43;3.22;;;;;;;12.93;100.00;100249.91;5035320;28;20105;-59
2023/07/05 04:12:55;;;;;;;4.93;3.33;;;;;;;12.92;100.00;100258.56;5047320;28;20074;-59
2023/07/05 04:15:21;;;;;;;6.47;3.83;;;;;;;12.92;100.00;100263.78;5048599;28;20044;-59
2023/07/05 04:17:46;;;;;;;3.85;3.00;;;;;;;12.97;100.00;100262.09;5047876;28;20479;-58
2023/07/05 04:20:12;;;;;;;7.03;3.65;;;;;;;12.95;100.00;100269.00;5047757;28;20078;-57
2023/07/05 04:22:40;;;;;;;6.20;3.58;;;;;;;12.95;100.00;100263.81;5047564;28;20476;-59
2023/07/05 04:25:09;;;;;;;4.68;3.25;;;;;;;12.99;100.00;100258.66;5047676;28;20036;-59
2023/07/05 04:27:35;;;;;;;5.20;3.70;;;;;;;12.99;100.00;100261.28;5035345;28;20028;-58
2023/07/05 04:30:03;;;;;;;6.53;3.80;;;;;;;13.02;100.00;100263.91;5048100;28;20447;-58
2023/07/05 04:32:28;;;;;;;7.18;4.57;;;;;;;13.03;100.00;100265.63;5048139;28;20493;-59
2023/07/05 04:34:53;;;;;;;6.22;4.15;;;;;;;13.07;100.00;100283.03;5046808;28;20381;-58
2023/07/05 04:37:19;;;;;;;6.38;3.90;;;;;;;13.06;100.00;100269.16;5047759;28;20473;-60
2023/07/05 04:39:44;;;;;;;5.82;3.20;;;;;;;13.07;100.00;100270.91;5045957;28;20057;-58
2023/07/05 04:42:09;;;;;;;5.68;3.58;;;;;;;13.11;100.00;100271.81;5047387;28;20358;-58
2023/07/05 04:44:35;;;;;;;5.05;3.63;;;;;;;13.11;100.00;100278.75;5046997;28;20477;-58
2023/07/05 04:47:00;;;;;;;6.07;3.78;;;;;;;13.09;100.00;100282.22;5047602;28;20378;-58
2023/07/05 04:49:25;;;;;;;5.78;3.70;;;;;;;13.12;100.00;100276.16;5047441;28;20043;-57
2023/07/05 04:51:51;;;;;;;4.60;3.58;;;;;;;13.10;100.00;100277.88;5047085;28;20052;-59
2023/07/05 04:54:17;;;;;;;6.22;3.63;;;;;;;13.13;100.00;100264.03;5047747;28;20028;-58
2023/07/05 04:56:42;;;;;;;5.82;4.18;;;;;;;13.09;100.00;100255.31;5047164;28;20036;-59
2023/07/05 04:59:10;;;;;;;7.97;3.95;;;;;;;13.11;100.00;100268.34;5047199;28;20040;-59
2023/07/05 05:01:36;;;;;;;6.07;3.30;;;;;;;13.16;100.00;100277.97;5046709;28;20036;-58
2023/07/05 05:04:01;;;;;;;9.90;3.50;;;;;;;13.17;100.00;100258.88;5047370;28;20021;-60
2023/07/05 05:06:27;;;;;;;6.32;3.35;;;;;;;13.19;100.00;100271.91;5046813;28;20021;-58
2023/07/05 05:08:52;;;;;;;3.35;3.00;;;;;;;13.21;100.00;100281.47;5046547;28;20025;-59
2023/07/05 05:11:17;;;;;;;4.45;3.10;;;;;;;13.26;100.00;100283.28;5047225;28;20380;-58
2023/07/05 05:13:42;;;;;;;4.28;2.83;;;;;;;13.25;100.00;100282.41;5047041;28;20033;-60
2023/07/05 05:16:08;;;;;;;5.20;3.42;;;;;;;13.26;100.00;100286.72;5041453;28;20472;-59
2023/07/05 05:18:37;;;;;;;5.40;3.30;;;;;;;13.26;100.00;100286.72;5044150;28;20078;-59
2023/07/05 05:21:02;;;;;;;7.55;3.53;;;;;;;13.31;100.00;100294.63;5046028;28;20037;-59
2023/07/05 05:23:29;;;;;;;7.30;2.92;;;;;;;13.25;100.00;100284.13;5048289;28;20020;-59
2023/07/05 05:25:55;;;;;;;8.02;3.67;;;;;;;13.20;100.00;100279.72;5043567;28;20037;-57
2023/07/05 05:28:20;;;;;;;7.35;3.47;;;;;;;13.18;100.00;100281.44;5048140;28;20036;-58
2023/07/05 05:30:46;;;;;;;6.57;3.55;;;;;;;13.18;100.00;100290.97;5048693;28;20520;-59
2023/07/05 05:33:14;;;;;;;4.53;3.05;;;;;;;13.21;100.00;100283.19;5047495;28;20491;-58
2023/07/05 05:35:44;;;;;;;8.35;2.90;;;;;;;13.23;100.00;100278.00;5048110;28;20068;-59
2023/07/05 05:38:10;;;;;;;7.07;3.45;;;;;;;13.23;100.00;100280.63;5047973;28;20051;-57
2023/07/05 05:40:35;;;;;;;4.45;2.63;;;;;;;13.23;100.00;100273.69;5048187;28;20028;-57
2023/07/05 05:43:00;;;;;;;4.10;3.10;;;;;;;13.24;100.00;100287.59;5047752;28;20052;-59
2023/07/05 05:45:26;;;;;;;6.00;3.47;;;;;;;13.24;100.00;100291.03;5045794;28;20567;-59
2023/07/05 05:47:51;;;;;;;7.22;3.15;;;;;;;13.28;100.00;100292.84;5047443;28;20063;-59
2023/07/05 05:50:19;;;;;;;5.88;2.70;;;;;;;13.29;100.00;100296.31;5040551;28;20128;-58
2023/07/05 05:52:44;;;;;;;7.35;2.92;;;;;;;13.28;100.00;100291.94;5047263;28;20036;-58
2023/07/05 05:55:09;;;;;;;7.57;3.83;;;;;;;13.27;100.00;100301.50;5047311;28;20044;-59
2023/07/05 05:57:34;;;;;;;8.00;3.30;;;;;;;13.26;100.00;100304.09;5050733;28;20069;-58
2023/07/05 06:00:00;;;;;;;7.50;3.15;;;;;;;13.27;100.00;100303.22;5050194;28;20473;-58
2023/07/05 06:02:25;;;;;;;5.90;3.15;;;;;;;13.29;100.00;100298.91;5050603;28;20025;-58
2023/07/05 06:04:52;;;;;;;6.05;3.20;;;;;;;13.29;100.00;100320.59;5049699;28;20033;-58
2023/07/05 06:07:17;;;;;;;5.68;2.80;;;;;;;13.33;100.00;100321.50;5041616;28;20525;-59
2023/07/05 06:09:47;;;;;;;4.13;2.70;;;;;;;13.33;100.00;100326.69;5049684;28;20112;-59
2023/07/05 06:12:13;;;;;;;3.03;2.42;;;;;;;13.29;100.00;100341.41;5050756;28;20025;-58
2023/07/05 06:14:38;;;;;;;6.07;3.10;;;;;;;13.25;100.00;100338.75;5042031;28;20082;-58
2023/07/05 06:17:04;;;;;;;6.40;2.75;;;;;;;13.25;100.00;100333.53;5049734;28;20032;-59
2023/07/05 06:19:29;;;;;;;6.18;2.83;;;;;;;13.28;100.00;100344.00;5049768;28;20028;-59
2023/07/05 06:21:55;;;;;;;6.20;3.00;;;;;;;13.31;100.00;100331.88;5049963;28;20107;-59
2023/07/05 06:24:20;;;;;;;4.90;2.72;;;;;;;13.32;100.00;100350.97;5050085;28;20583;-59
2023/07/05 06:26:45;;;;;;;3.53;2.40;;;;;;;13.31;100.00;100342.28;5050003;28;20021;-59
2023/07/05 06:29:10;;;;;;;3.55;2.58;;;;;;;13.28;100.00;100362.19;5049383;28;20017;-59
2023/07/05 06:31:36;;;;;;;4.75;1.98;;;;;;;13.35;100.00;100343.22;5049927;28;20025;-59
2023/07/05 06:34:01;;;;;;;4.55;2.20;;;;;;;13.44;100.00;100361.56;5049779;28;20493;-58
2023/07/05 06:36:26;;;;;;;3.53;2.10;;;;;;;13.53;100.00;100359.94;5048596;28;20020;-59
2023/07/05 06:38:51;;;;;;;4.13;2.05;;;;;;;13.59;100.00;100322.69;5047660;28;20051;-59
2023/07/05 06:41:17;;;;;;;4.72;2.50;;;;;;;13.65;100.00;100359.22;5047691;28;20102;-58
2023/07/05 06:43:43;;;;;;;6.05;2.45;;;;;;;13.80;100.00;100379.34;5045896;28;20022;-59
2023/07/05 06:46:08;;;;;;;3.90;2.05;;;;;;;13.86;100.00;100365.53;5048307;28;20021;-60
2023/07/05 06:48:33;;;;;;;3.22;2.15;;;;;;;13.91;100.00;100375.13;5048380;28;20120;-58
2023/07/05 06:50:59;;;;;;;4.40;2.33;;;;;;;13.95;100.00;100372.56;5048983;28;20017;-58
2023/07/05 06:53:25;;;;;;;3.83;1.90;;;;;;;13.96;100.00;100383.00;5049866;28;20485;-59
2023/07/05 06:55:50;;;;;;;3.40;1.75;;;;;;;13.98;100.00;100388.22;5049946;28;20025;-59
2023/07/05 06:58:19;;;;;;;3.38;2.05;;;;;;;13.93;100.00;100385.56;5048820;28;20112;-59
2023/07/05 07:00:46;;;;;;;7.90;3.28;;;;;;;13.97;100.00;100391.69;5049619;28;20511;-58
2023/07/05 07:03:11;;;;;;;3.72;2.15;;;;;;;14.04;100.00;100389.19;5048968;28;20037;-59
2023/07/05 07:05:37;;;;;;;2.55;1.80;;;;;;;14.03;100.00;100394.38;5049615;28;20481;-59
2023/07/05 07:08:02;;;;;;;3.65;1.83;;;;;;;14.12;100.00;100406.63;5049614;28;20131;-59
2023/07/05 07:10:28;;;;;;;4.75;2.33;;;;;;;14.24;100.00;100393.72;5049777;28;20048;-59
2023/07/05 07:12:53;;;;;;;4.63;1.90;;;;;;;14.31;100.00;100405.06;5048748;28;20036;-59
2023/07/05 07:15:18;;;;;;;3.95;2.22;;;;;;;14.31;100.00;100415.50;5049263;28;20450;-59
2023/07/05 07:17:45;;;;;;;6.10;2.17;;;;;;;14.33;100.00;100421.59;5049050;28;20465;-59
2023/07/05 07:20:10;;;;;;;2.30;1.80;;;;;;;14.40;100.00;100422.53;5049424;28;20047;-58
2023/07/05 07:22:36;;;;;;;4.93;1.50;;;;;;;14.35;100.00;100417.28;5048879;28;20112;-58
2023/07/05 07:25:01;;;;;;;7.75;1.23;;;;;;;14.38;100.00;100432.94;5049452;28;20036;-59
2023/07/05 07:27:26;;;;;;;3.47;1.42;;;;;;;14.37;100.00;100436.38;5042961;28;20124;-59
2023/07/05 07:29:53;;;;;;;3.90;1.60;;;;;;;14.44;100.00;100441.66;5041893;28;20029;-58
2023/07/05 07:32:18;;;;;;;4.10;2.05;;;;;;;14.43;100.00;100455.56;5049139;28;20019;-59
2023/07/05 07:34:43;;;;;;;3.00;1.50;;;;;;;14.36;100.00;100468.53;5048982;28;20021;-59
2023/07/05 07:37:09;;;;;;;4.25;2.10;;;;;;;14.13;100.00;100476.09;5048019;28;20051;-59
2023/07/05 07:39:34;;;;;;;4.25;2.17;;;;;;;14.04;100.00;100485.56;5048615;28;20052;-59
2023/07/05 07:42:00;;;;;;;3.55;1.88;;;;;;;13.87;100.00;100490.53;5048865;28;20496;-58
2023/07/05 07:44:25;;;;;;;3.90;2.70;;;;;;;13.70;100.00;100490.34;5048768;28;20553;-59
2023/07/05 07:46:51;;;;;;;3.70;1.83;;;;;;;13.45;100.00;100501.22;5047158;28;20029;-59
2023/07/05 07:49:16;;;;;;;3.60;2.10;;;;;;;13.32;100.00;100500.19;5048784;28;20029;-59
2023/07/05 07:51:44;;;;;;;4.20;1.83;;;;;;;13.29;100.00;100501.88;5048247;28;20100;-58
2023/07/05 07:54:15;;;;;;;4.28;2.10;;;;;;;13.11;100.00;100513.75;5048290;28;20091;-58
2023/07/05 07:56:45;;;;;;;2.38;1.92;;;;;;;13.08;100.00;100518.88;5036256;28;20075;-59
2023/07/05 07:59:11;;;;;;;4.57;2.22;;;;;;;13.12;100.00;100509.38;5048368;28;20033;-59
2023/07/05 08:01:38;;;;;;;4.50;2.25;;;;;;;13.11;100.00;100511.13;5048357;28;20094;-59
2023/07/05 08:04:05;;;;;;;3.63;2.53;;;;;;;13.14;100.00;100518.97;5048522;28;20036;-59
2023/07/05 08:06:46;;;;;;;5.20;2.22;;;;;;;13.12;100.00;100514.59;5046930;28;20040;-59
2023/07/05 08:09:17;;;;;;;2.80;2.17;;;;;;;13.03;100.00;100515.31;5048274;28;20045;-59
2023/07/05 08:11:43;;;;;;;3.80;2.63;;;;;;;12.93;100.00;100509.97;5048518;28;20063;-59
2023/07/05 08:14:09;;;;;;;3.88;2.28;;;;;;;12.93;100.00;100520.34;5048015;28;20025;-58
2023/07/05 08:16:35;;;;;;;3.50;2.47;;;;;;;12.91;100.00;100522.09;5048374;28;20021;-59
2023/07/05 08:19:00;;;;;;;6.95;2.78;;;;;;;12.96;100.00;100525.63;5047407;28;20044;-57
2023/07/05 08:21:26;;;;;;;5.35;2.17;;;;;;;12.99;100.00;100523.94;5047918;28;20025;-60
2023/07/05 08:23:52;;;;;;;4.18;2.67;;;;;;;13.14;100.00;100525.91;5047757;28;20035;-58
2023/07/05 08:26:17;;;;;;;3.28;2.38;;;;;;;13.35;100.00;100527.97;5037366;28;20079;-59
2023/07/05 08:28:43;;;;;;;6.72;2.70;;;;;;;13.65;100.00;100537.13;5043534;28;20112;-57
2023/07/05 08:31:08;;;;;;;5.03;2.30;;;;;;;14.03;100.00;100527.22;5047855;28;20025;-58
2023/07/05 08:33:36;;;;;;;5.75;2.10;;;;;;;14.46;100.00;100531.19;5048219;28;20489;-59
2023/07/05 08:36:04;;;;;;;5.38;2.33;;;;;;;14.85;100.00;100532.50;5048139;28;20033;-60
2023/07/05 08:38:29;;;;;;;6.32;2.65;;;;;;;15.30;100.00;100537.22;5047421;28;20040;-59
2023/07/05 08:41:11;;;;;;;6.38;2.60;;;;;;;15.64;100.00;100543.50;5047247;28;20384;-59
2023/07/05 08:43:59;;;;;;;4.03;2.50;;;;;;;15.91;100.00;100544.53;5048173;28;20362;-59
2023/07/05 08:46:26;;;;;;;6.40;2.88;;;;;;;16.15;100.00;100556.91;5048040;28;20153;-60
2023/07/05 08:48:59;;;;;;;5.95;2.38;;;;;;;16.28;100.00;100580.47;5048390;28;20063;-59
2023/07/05 08:51:25;;;;;;;5.18;2.10;;;;;;;16.23;100.00;100567.38;5047928;28;20017;-59
2023/07/05 08:53:56;;;;;;;7.40;2.40;;;;;;;16.40;100.00;100580.53;5047783;28;20393;-60
2023/07/05 08:56:59;;;;;;;6.07;2.00;;;;;;;16.68;100.00;100585.81;5047844;28;20106;-59
2023/07/05 08:59:46;;;;;;;5.72;2.92;;;;;;;16.98;100.00;100596.34;5036846;28;20051;-58
2023/07/05 09:02:16;;;;;;;6.03;2.70;;;;;;;17.14;97.42;100588.56;5036431;28;20325;-59
2023/07/05 09:04:41;;;;;;;3.67;2.53;;;;;;;17.32;95.99;100581.56;5047290;28;20025;-59
2023/07/05 09:07:20;;;;;;;6.13;2.50;;;;;;;17.41;94.89;100592.06;5047473;28;20029;-59
2023/07/05 09:09:53;;;;;;;3.10;1.92;;;;;;;17.47;95.38;100599.88;5047255;28;20388;-58
2023/07/05 09:12:53;;;;;;;4.72;2.33;;;;;;;17.66;93.29;100602.50;5047751;28;20017;-60
2023/07/05 09:15:23;;;;;;;5.85;2.22;;;;;;;17.67;92.83;100613.84;5047844;28;20032;-59
2023/07/05 09:18:04;;;;;;;5.93;2.42;;;;;;;17.66;91.39;100597.28;5046544;28;20520;-59
2023/07/05 09:20:44;;;;;;;4.13;2.10;;;;;;;17.68;90.93;100642.69;5047128;28;20036;-59
2023/07/05 09:23:17;;;;;;;5.70;2.65;;;;;;;17.67;90.25;100614.72;5037512;28;20388;-60
2023/07/05 09:25:47;;;;;;;3.63;2.47;;;;;;;17.58;88.90;100620.84;5045199;28;20155;-60
2023/07/05 09:28:27;;;;;;;5.82;2.00;;;;;;;17.62;90.18;100637.44;5047553;28;20032;-59
2023/07/05 09:30:53;;;;;;;4.22;2.00;;;;;;;17.79;88.31;100633.94;5035252;28;20013;-59
2023/07/05 09:33:30;;;;;;;3.95;2.08;;;;;;;18.02;88.13;100640.88;5047636;28;20017;-59
2023/07/05 09:36:02;;;;;;;4.90;2.22;;;;;;;18.30;85.27;100640.81;5047205;28;20025;-60
2023/07/05 09:38:34;;;;;;;5.13;2.15;;;;;;;18.43;83.46;100637.28;5046354;28;20513;-60
2023/07/05 09:41:13;;;;;;;3.85;1.92;;;;;;;18.62;84.52;100663.44;5047384;28;20063;-60
2023/07/05 09:43:38;;;;;;;4.72;2.25;;;;;;;18.74;81.90;100651.13;5047676;28;20029;-58
2023/07/05 09:46:26;;;;;;;9.68;2.15;;;;;;;18.80;82.03;100678.22;5046902;28;20032;-58
2023/07/05 09:48:52;;;;;;;2.97;1.35;;;;;;;18.93;80.81;100684.28;5026783;28;20067;-60
2023/07/05 09:51:17;;;;;;;6.47;2.03;;;;;;;18.97;74.65;100685.16;5043534;28;20206;-60
2023/07/05 09:53:56;;;;;;;4.22;1.50;;;;;;;18.99;73.71;100674.63;5046606;28;20105;-59
2023/07/05 09:56:29;;;;;;;3.85;1.63;;;;;;;19.09;73.48;100678.94;5046630;28;20562;-59
2023/07/05 09:59:27;;;;;;;3.15;1.30;;;;;;;19.03;69.46;100684.25;5047171;28;20025;-60
2023/07/05 10:02:12;;;;;;;3.28;1.08;;;;;;;19.00;70.13;100705.25;5052365;28;20111;-60
2023/07/05 10:04:52;;;;;;;7.00;1.45;;;;;;;18.88;70.29;100696.56;5046403;28;20112;-60
2023/07/05 10:07:30;;;;;;;4.13;1.25;;;;;;;18.96;72.27;100689.50;5050038;28;20055;-59
2023/07/05 10:10:07;;;;;;;4.45;1.80;;;;;;;19.00;70.73;100700.00;5050844;28;20024;-58
2023/07/05 10:12:35;;;;;;;5.78;1.73;;;;;;;18.96;67.66;100702.63;5050529;28;21049;-60
2023/07/05 10:15:02;;;;;;;4.40;1.33;;;;;;;18.95;69.67;100707.91;5051237;28;20068;-60
2023/07/05 10:17:40;;;;;;;3.70;1.00;;;;;;;18.89;66.76;100713.19;5050030;28;20048;-60
2023/07/05 10:20:27;;;;;;;5.32;1.45;;;;;;;18.95;67.53;100728.91;5050625;28;20473;-60
2023/07/05 10:23:04;;;;;;;3.10;1.17;;;;;;;19.00;67.38;100721.00;5039162;28;20028;-60
2023/07/05 10:25:33;;;;;;;5.47;1.60;;;;;;;18.99;67.58;100724.50;5050068;28;20114;-60
2023/07/05 10:28:02;;;;;;;2.90;1.33;;;;;;;18.92;65.73;100742.94;5050596;28;20036;-59
2023/07/05 10:30:27;;;;;;;3.28;1.00;;;;;;;19.02;68.69;100749.00;5049681;28;20017;-60
2023/07/05 10:33:16;;;;;;;3.50;1.17;;;;;;;19.22;68.65;100747.19;5050088;28;20032;-59
2023/07/05 10:36:03;;;;;;;3.35;1.00;;;;;;;19.42;69.17;100755.81;5037844;28;20013;-60
2023/07/05 10:38:32;;;;;;;3.40;1.05;;;;;;;19.48;67.33;100770.66;5049727;28;20056;-59
2023/07/05 10:41:11;;;;;;;2.92;1.17;;;;;;;19.41;67.18;100764.56;5049620;28;20155;-60
2023/07/05 10:43:37;;;;;;;5.90;1.73;;;;;;;19.46;65.68;100772.44;5050333;28;20108;-60
2023/07/05 10:46:03;;;;;;;6.18;1.13;;;;;;;19.54;63.98;100760.13;5050137;28;20136;-61
2023/07/05 10:48:40;;;;;;;2.90;1.10;;;;;;;19.51;64.17;100781.16;5049897;28;20027;-60
2023/07/05 10:51:14;;;;;;;2.67;1.05;;;;;;;19.44;64.35;100792.59;5049325;28;20017;-59
2023/07/05 10:53:42;;;;;;;3.05;1.10;;;;;;;19.40;64.55;100781.22;5049602;28;20137;-60
2023/07/05 10:56:16;;;;;;;3.90;1.00;;;;;;;19.36;63.35;100791.75;5050065;28;20029;-60
2023/07/05 10:58:52;;;;;;;2.10;1.20;;;;;;;19.21;59.83;100785.72;5049667;28;20508;-60
2023/07/05 11:01:36;;;;;;;3.70;1.00;;;;;;;19.06;58.86;100782.25;5049285;28;20025;-59
2023/07/05 11:04:30;;;;;;;2.92;0.90;;;;;;;19.06;58.58;100794.50;5049737;28;20111;-60
2023/07/05 11:07:04;;;;;;;3.75;1.08;;;;;;;19.12;59.77;100789.25;5049392;28;20044;-60
2023/07/05 11:09:35;;;;;;;11.45;1.20;;;;;;;19.16;56.37;100780.47;5049193;28;20030;-60
2023/07/05 11:12:04;;;;;;;3.30;0.90;;;;;;;19.34;58.88;100791.75;5049304;28;20100;-61
2023/07/05 11:14:30;;;;;;;2.92;1.10;;;;;;;19.48;59.88;100804.81;5049556;28;20029;-60
2023/07/05 11:16:57;;;;;;;3.90;1.00;;;;;;;19.62;59.48;100809.13;5049099;28;20021;-60
2023/07/05 11:19:27;;;;;;;3.42;1.40;;;;;;;19.79;58.61;100811.63;5047995;28;20025;-60
2023/07/05 11:21:52;;;;;;;5.55;1.33;;;;;;;19.83;57.97;100820.38;5049111;28;20031;-59
2023/07/05 11:24:30;;;;;;;4.78;0.88;;;;;;;19.98;58.57;100825.53;5049347;28;20024;-60
2023/07/05 11:26:55;;;;;;;2.78;0.90;;;;;;;19.96;55.44;100826.41;5047558;28;20052;-60
2023/07/05 11:29:26;;;;;;;3.47;1.30;;;;;;;20.09;57.71;100835.13;5038151;28;20068;-60